sensor_id;sensor_type;location;lat;lon;timestamp;temperature;humidity
14411;DHT22;7290;50.854;4.354;2023-09-12T00:01:19;23.20;99.90
14411;DHT22;7290;50.854;4.354;2023-09-12T00:03:46;23.20;99.90
14411;DHT22;7290;50.854;4.354;2023-09-12T00:06:12;23.20;99.90
14411;DHT22;7290;50.854;4.354;2023-09-12T00:08:38;23.20;99.90
14411;DHT22;7290;50.854;4.354;2023-09-12T00:11:06;23.30;99.90
14411;DHT22;7290;50.854;4.354;2023-09-12T00:13:36;23.30;99.90
14411;DHT22;7290;50.854;4.354;2023-09-12T00:16:02;23.30;99.90
14411;DHT22;7290;50.854;4.354;2023-09-12T00:18:28;23.40;99.90
14411;DHT22;7290;50.854;4.354;2023-09-12T00:20:55;23.40;99.90
14411;DHT22;7290;50.854;4.354;2023-09-12T00:23:21;23.50;99.90
14411;DHT22;7290;50.854;4.354;2023-09-12T00:25:48;23.40;99.90
14411;DHT22;7290;50.854;4.354;2023-09-12T00:28:14;23.40;99.90
14411;DHT22;7290;50.854;4.354;2023-09-12T00:30:41;23.40;99.90
14411;DHT22;7290;50.854;4.354;2023-09-12T00:33:07;23.40;99.90
14411;DHT22;7290;50.854;4.354;2023-09-12T00:35:33;23.40;99.90
14411;DHT22;7290;50.854;4.354;2023-09-12T00:37:59;23.40;99.90
14411;DHT22;7290;50.854;4.354;2023-09-12T00:40:26;23.30;99.90
14411;DHT22;7290;50.854;4.354;2023-09-12T00:42:52;23.30;99.90
14411;DHT22;7290;50.854;4.354;2023-09-12T00:45:18;23.30;99.90
14411;DHT22;7290;50.854;4.354;2023-09-12T00:47:44;23.20;99.90
14411;DHT22;7290;50.854;4.354;2023-09-12T00:50:11;23.20;99.90
14411;DHT22;7290;50.854;4.354;2023-09-12T00:52:38;23.30;99.90
14411;DHT22;7290;50.854;4.354;2023-09-12T00:55:06;23.40;99.90
14411;DHT22;7290;50.854;4.354;2023-09-12T00:57:33;23.40;99.90
14411;DHT22;7290;50.854;4.354;2023-09-12T01:00:02;23.30;99.90
14411;DHT22;7290;50.854;4.354;2023-09-12T01:02:37;23.20;99.90
14411;DHT22;7290;50.854;4.354;2023-09-12T01:05:05;23.20;99.90
14411;DHT22;7290;50.854;4.354;2023-09-12T01:07:32;23.30;99.90
14411;DHT22;7290;50.854;4.354;2023-09-12T01:09:58;23.30;99.90
14411;DHT22;7290;50.854;4.354;2023-09-12T01:12:24;23.20;99.90
14411;DHT22;7290;50.854;4.354;2023-09-12T01:14:50;23.20;99.90
14411;DHT22;7290;50.854;4.354;2023-09-12T01:17:16;23.00;99.90
14411;DHT22;7290;50.854;4.354;2023-09-12T01:19:43;22.90;99.90
14411;DHT22;7290;50.854;4.354;2023-09-12T01:28:30;22.20;99.90
14411;DHT22;7290;50.854;4.354;2023-09-12T01:30:58;22.00;99.90
14411;DHT22;7290;50.854;4.354;2023-09-12T01:33:25;22.00;99.90
14411;DHT22;7290;50.854;4.354;2023-09-12T01:35:52;21.90;99.90
14411;DHT22;7290;50.854;4.354;2023-09-12T01:38:18;21.90;99.90
14411;DHT22;7290;50.854;4.354;2023-09-12T01:40:48;21.90;99.90
14411;DHT22;7290;50.854;4.354;2023-09-12T01:43:16;21.90;99.90
14411;DHT22;7290;50.854;4.354;2023-09-12T01:45:44;21.90;99.90
14411;DHT22;7290;50.854;4.354;2023-09-12T01:48:11;21.90;99.90
14411;DHT22;7290;50.854;4.354;2023-09-12T01:50:38;21.90;99.90
14411;DHT22;7290;50.854;4.354;2023-09-12T01:53:05;21.90;99.90
14411;DHT22;7290;50.854;4.354;2023-09-12T01:55:31;22.00;99.90
14411;DHT22;7290;50.854;4.354;2023-09-12T01:57:58;22.00;99.90
14411;DHT22;7290;50.854;4.354;2023-09-12T02:00:24;22.00;99.90
14411;DHT22;7290;50.854;4.354;2023-09-12T02:02:51;22.00;99.90
14411;DHT22;7290;50.854;4.354;2023-09-12T02:05:19;21.90;99.90
14411;DHT22;7290;50.854;4.354;2023-09-12T02:07:46;21.80;99.90
14411;DHT22;7290;50.854;4.354;2023-09-12T02:10:13;21.70;99.90
14411;DHT22;7290;50.854;4.354;2023-09-12T02:12:40;21.70;99.90
14411;DHT22;7290;50.854;4.354;2023-09-12T02:15:07;21.70;99.90
14411;DHT22;7290;50.854;4.354;2023-09-12T02:17:33;21.70;99.90
14411;DHT22;7290;50.854;4.354;2023-09-12T02:20:00;21.60;99.90
14411;DHT22;7290;50.854;4.354;2023-09-12T02:22:26;21.60;99.90
14411;DHT22;7290;50.854;4.354;2023-09-12T02:24:52;21.60;99.90
14411;DHT22;7290;50.854;4.354;2023-09-12T02:27:18;21.70;99.90
14411;DHT22;7290;50.854;4.354;2023-09-12T02:29:44;21.50;99.90
14411;DHT22;7290;50.854;4.354;2023-09-12T02:32:10;21.20;99.90
14411;DHT22;7290;50.854;4.354;2023-09-12T02:34:36;21.20;99.90
14411;DHT22;7290;50.854;4.354;2023-09-12T02:37:03;21.40;99.90
14411;DHT22;7290;50.854;4.354;2023-09-12T02:39:29;21.40;99.90
14411;DHT22;7290;50.854;4.354;2023-09-12T02:41:55;21.50;99.90
14411;DHT22;7290;50.854;4.354;2023-09-12T02:44:21;21.50;99.90
14411;DHT22;7290;50.854;4.354;2023-09-12T02:46:48;21.30;99.90
14411;DHT22;7290;50.854;4.354;2023-09-12T02:49:14;21.10;99.90
14411;DHT22;7290;50.854;4.354;2023-09-12T02:51:40;21.20;99.90
14411;DHT22;7290;50.854;4.354;2023-09-12T02:54:07;21.20;99.90
14411;DHT22;7290;50.854;4.354;2023-09-12T02:56:33;21.50;99.90
14411;DHT22;7290;50.854;4.354;2023-09-12T02:59:00;21.60;99.90
14411;DHT22;7290;50.854;4.354;2023-09-12T03:01:26;21.60;99.90
14411;DHT22;7290;50.854;4.354;2023-09-12T03:03:54;21.60;99.90
14411;DHT22;7290;50.854;4.354;2023-09-12T03:06:20;21.70;99.90
14411;DHT22;7290;50.854;4.354;2023-09-12T03:08:47;21.70;99.90
14411;DHT22;7290;50.854;4.354;2023-09-12T03:11:14;21.80;99.90
14411;DHT22;7290;50.854;4.354;2023-09-12T03:13:41;21.90;99.90
14411;DHT22;7290;50.854;4.354;2023-09-12T03:16:10;22.00;99.90
14411;DHT22;7290;50.854;4.354;2023-09-12T03:18:36;22.00;99.90
14411;DHT22;7290;50.854;4.354;2023-09-12T03:21:03;22.00;99.90
14411;DHT22;7290;50.854;4.354;2023-09-12T03:23:29;22.00;99.90
14411;DHT22;7290;50.854;4.354;2023-09-12T03:26:00;22.00;99.90
14411;DHT22;7290;50.854;4.354;2023-09-12T03:28:27;22.00;99.90
14411;DHT22;7290;50.854;4.354;2023-09-12T03:31:05;22.10;99.90
14411;DHT22;7290;50.854;4.354;2023-09-12T03:33:31;22.10;99.90
14411;DHT22;7290;50.854;4.354;2023-09-12T03:35:58;21.90;99.90
14411;DHT22;7290;50.854;4.354;2023-09-12T03:38:24;21.70;99.90
14411;DHT22;7290;50.854;4.354;2023-09-12T03:40:50;21.90;99.90
14411;DHT22;7290;50.854;4.354;2023-09-12T03:43:16;21.90;99.90
14411;DHT22;7290;50.854;4.354;2023-09-12T03:45:43;21.90;99.90
14411;DHT22;7290;50.854;4.354;2023-09-12T03:48:09;22.00;99.90
14411;DHT22;7290;50.854;4.354;2023-09-12T03:50:35;22.10;99.90
14411;DHT22;7290;50.854;4.354;2023-09-12T03:53:01;22.30;99.90
14411;DHT22;7290;50.854;4.354;2023-09-12T03:55:27;22.30;99.90
14411;DHT22;7290;50.854;4.354;2023-09-12T03:57:53;22.30;99.90
14411;DHT22;7290;50.854;4.354;2023-09-12T04:00:19;22.20;99.90
14411;DHT22;7290;50.854;4.354;2023-09-12T04:02:46;22.20;99.90
14411;DHT22;7290;50.854;4.354;2023-09-12T04:05:13;22.20;99.90
14411;DHT22;7290;50.854;4.354;2023-09-12T04:07:39;22.30;99.90
14411;DHT22;7290;50.854;4.354;2023-09-12T04:10:06;22.30;99.90
14411;DHT22;7290;50.854;4.354;2023-09-12T04:12:32;22.30;99.90
14411;DHT22;7290;50.854;4.354;2023-09-12T04:14:58;22.40;99.90
14411;DHT22;7290;50.854;4.354;2023-09-12T04:17:24;22.40;99.90
14411;DHT22;7290;50.854;4.354;2023-09-12T04:19:51;22.30;99.90
14411;DHT22;7290;50.854;4.354;2023-09-12T04:22:17;22.30;99.90
14411;DHT22;7290;50.854;4.354;2023-09-12T04:24:44;22.40;99.90
14411;DHT22;7290;50.854;4.354;2023-09-12T04:27:10;22.40;99.90
14411;DHT22;7290;50.854;4.354;2023-09-12T04:29:36;22.50;99.90
14411;DHT22;7290;50.854;4.354;2023-09-12T04:32:03;22.40;99.90
14411;DHT22;7290;50.854;4.354;2023-09-12T04:34:29;22.40;99.90
14411;DHT22;7290;50.854;4.354;2023-09-12T04:36:56;22.30;99.90
14411;DHT22;7290;50.854;4.354;2023-09-12T04:39:23;22.30;99.90
14411;DHT22;7290;50.854;4.354;2023-09-12T04:41:50;22.30;99.90
14411;DHT22;7290;50.854;4.354;2023-09-12T04:44:16;22.30;99.90
14411;DHT22;7290;50.854;4.354;2023-09-12T04:46:42;22.40;99.90
14411;DHT22;7290;50.854;4.354;2023-09-12T04:49:08;22.40;99.90
14411;DHT22;7290;50.854;4.354;2023-09-12T04:51:34;22.40;99.90
14411;DHT22;7290;50.854;4.354;2023-09-12T04:54:01;22.40;99.90
14411;DHT22;7290;50.854;4.354;2023-09-12T04:56:28;22.40;99.90
14411;DHT22;7290;50.854;4.354;2023-09-12T04:58:54;22.30;99.90
14411;DHT22;7290;50.854;4.354;2023-09-12T05:01:20;22.20;99.90
14411;DHT22;7290;50.854;4.354;2023-09-12T05:03:46;22.20;99.90
14411;DHT22;7290;50.854;4.354;2023-09-12T05:06:13;22.40;99.90
14411;DHT22;7290;50.854;4.354;2023-09-12T05:08:39;22.30;99.90
14411;DHT22;7290;50.854;4.354;2023-09-12T05:11:06;22.30;99.90
14411;DHT22;7290;50.854;4.354;2023-09-12T05:13:32;22.30;99.90
14411;DHT22;7290;50.854;4.354;2023-09-12T05:15:59;22.20;99.90
14411;DHT22;7290;50.854;4.354;2023-09-12T05:18:25;22.20;99.90
14411;DHT22;7290;50.854;4.354;2023-09-12T05:20:52;22.30;99.90
14411;DHT22;7290;50.854;4.354;2023-09-12T05:23:18;22.10;99.90
14411;DHT22;7290;50.854;4.354;2023-09-12T05:25:44;22.10;99.90
14411;DHT22;7290;50.854;4.354;2023-09-12T05:28:11;21.90;99.90
14411;DHT22;7290;50.854;4.354;2023-09-12T05:30:41;21.80;99.90
14411;DHT22;7290;50.854;4.354;2023-09-12T05:33:07;21.60;99.90
14411;DHT22;7290;50.854;4.354;2023-09-12T05:35:34;21.60;99.90
14411;DHT22;7290;50.854;4.354;2023-09-12T05:38:00;21.60;99.90
14411;DHT22;7290;50.854;4.354;2023-09-12T05:40:26;21.80;99.90
14411;DHT22;7290;50.854;4.354;2023-09-12T05:42:52;21.70;99.90
14411;DHT22;7290;50.854;4.354;2023-09-12T05:45:19;21.50;99.90
14411;DHT22;7290;50.854;4.354;2023-09-12T05:47:48;21.40;99.90
14411;DHT22;7290;50.854;4.354;2023-09-12T05:50:14;21.40;99.90
14411;DHT22;7290;50.854;4.354;2023-09-12T05:52:40;21.50;99.90
14411;DHT22;7290;50.854;4.354;2023-09-12T05:55:08;21.50;99.90
14411;DHT22;7290;50.854;4.354;2023-09-12T05:57:35;21.50;99.90
14411;DHT22;7290;50.854;4.354;2023-09-12T06:00:01;21.60;99.90
14411;DHT22;7290;50.854;4.354;2023-09-12T06:02:31;21.80;99.90
14411;DHT22;7290;50.854;4.354;2023-09-12T06:04:59;21.80;99.90
14411;DHT22;7290;50.854;4.354;2023-09-12T06:07:25;21.90;99.90
14411;DHT22;7290;50.854;4.354;2023-09-12T06:09:51;21.90;99.90
14411;DHT22;7290;50.854;4.354;2023-09-12T06:12:17;21.90;99.90
14411;DHT22;7290;50.854;4.354;2023-09-12T06:14:44;21.90;99.90
14411;DHT22;7290;50.854;4.354;2023-09-12T06:17:10;21.70;99.90
14411;DHT22;7290;50.854;4.354;2023-09-12T06:19:37;21.80;99.90
14411;DHT22;7290;50.854;4.354;2023-09-12T06:22:05;21.80;99.90
14411;DHT22;7290;50.854;4.354;2023-09-12T06:24:31;22.00;99.90
14411;DHT22;7290;50.854;4.354;2023-09-12T06:26:57;22.20;99.90
14411;DHT22;7290;50.854;4.354;2023-09-12T06:29:23;22.30;99.90
14411;DHT22;7290;50.854;4.354;2023-09-12T06:31:49;22.20;99.90
14411;DHT22;7290;50.854;4.354;2023-09-12T06:34:15;22.30;99.90
14411;DHT22;7290;50.854;4.354;2023-09-12T06:36:42;22.20;99.90
14411;DHT22;7290;50.854;4.354;2023-09-12T06:39:10;22.10;99.90
14411;DHT22;7290;50.854;4.354;2023-09-12T06:41:36;22.20;99.90
14411;DHT22;7290;50.854;4.354;2023-09-12T06:44:03;22.40;99.90
14411;DHT22;7290;50.854;4.354;2023-09-12T06:46:30;22.40;99.90
14411;DHT22;7290;50.854;4.354;2023-09-12T06:48:56;22.50;99.90
14411;DHT22;7290;50.854;4.354;2023-09-12T06:51:24;22.50;99.90
14411;DHT22;7290;50.854;4.354;2023-09-12T06:53:52;22.50;99.90
14411;DHT22;7290;50.854;4.354;2023-09-12T06:56:18;22.60;99.90
14411;DHT22;7290;50.854;4.354;2023-09-12T06:58:44;22.60;99.90
14411;DHT22;7290;50.854;4.354;2023-09-12T07:01:10;22.50;99.90
14411;DHT22;7290;50.854;4.354;2023-09-12T07:03:36;22.40;99.90
14411;DHT22;7290;50.854;4.354;2023-09-12T07:06:03;22.20;99.90
14411;DHT22;7290;50.854;4.354;2023-09-12T07:08:31;22.20;99.90
14411;DHT22;7290;50.854;4.354;2023-09-12T07:10:58;22.10;99.90
14411;DHT22;7290;50.854;4.354;2023-09-12T07:13:30;22.20;99.90
14411;DHT22;7290;50.854;4.354;2023-09-12T07:15:59;22.20;99.90
14411;DHT22;7290;50.854;4.354;2023-09-12T07:18:28;22.00;99.90
14411;DHT22;7290;50.854;4.354;2023-09-12T07:20:58;22.20;99.90
14411;DHT22;7290;50.854;4.354;2023-09-12T07:23:24;22.50;99.90
14411;DHT22;7290;50.854;4.354;2023-09-12T07:25:50;22.60;99.90
14411;DHT22;7290;50.854;4.354;2023-09-12T07:28:17;22.80;99.90
14411;DHT22;7290;50.854;4.354;2023-09-12T07:30:45;22.90;99.90
14411;DHT22;7290;50.854;4.354;2023-09-12T07:33:12;23.00;99.90
14411;DHT22;7290;50.854;4.354;2023-09-12T07:35:38;23.20;99.90
14411;DHT22;7290;50.854;4.354;2023-09-12T07:38:04;23.20;99.90
14411;DHT22;7290;50.854;4.354;2023-09-12T07:40:30;23.10;99.90
14411;DHT22;7290;50.854;4.354;2023-09-12T07:42:56;23.10;99.90
14411;DHT22;7290;50.854;4.354;2023-09-12T07:45:23;23.20;99.90
14411;DHT22;7290;50.854;4.354;2023-09-12T07:47:50;23.30;99.90
14411;DHT22;7290;50.854;4.354;2023-09-12T07:50:17;23.40;99.90
14411;DHT22;7290;50.854;4.354;2023-09-12T07:52:43;23.30;99.90
14411;DHT22;7290;50.854;4.354;2023-09-12T07:55:09;23.20;99.90
14411;DHT22;7290;50.854;4.354;2023-09-12T07:57:36;23.10;99.90
14411;DHT22;7290;50.854;4.354;2023-09-12T08:00:03;22.90;99.90
14411;DHT22;7290;50.854;4.354;2023-09-12T08:02:31;22.90;99.90
14411;DHT22;7290;50.854;4.354;2023-09-12T08:04:57;23.00;99.90
14411;DHT22;7290;50.854;4.354;2023-09-12T08:07:24;22.90;99.90
14411;DHT22;7290;50.854;4.354;2023-09-12T08:09:51;22.80;99.90
14411;DHT22;7290;50.854;4.354;2023-09-12T08:12:18;22.90;99.90
14411;DHT22;7290;50.854;4.354;2023-09-12T08:14:44;22.90;99.90
14411;DHT22;7290;50.854;4.354;2023-09-12T08:17:11;22.90;99.90
14411;DHT22;7290;50.854;4.354;2023-09-12T08:19:38;22.70;99.90
14411;DHT22;7290;50.854;4.354;2023-09-12T08:22:05;22.90;99.90
14411;DHT22;7290;50.854;4.354;2023-09-12T08:24:31;23.30;99.90
14411;DHT22;7290;50.854;4.354;2023-09-12T08:26:58;23.50;99.90
14411;DHT22;7290;50.854;4.354;2023-09-12T08:29:25;23.40;99.90
14411;DHT22;7290;50.854;4.354;2023-09-12T08:31:51;23.80;99.90
14411;DHT22;7290;50.854;4.354;2023-09-12T08:34:17;24.10;99.90
14411;DHT22;7290;50.854;4.354;2023-09-12T08:36:46;24.30;99.90
14411;DHT22;7290;50.854;4.354;2023-09-12T08:39:14;24.40;99.90
14411;DHT22;7290;50.854;4.354;2023-09-12T08:41:41;24.50;99.90
14411;DHT22;7290;50.854;4.354;2023-09-12T08:44:07;24.30;99.90
14411;DHT22;7290;50.854;4.354;2023-09-12T08:46:34;24.20;99.90
14411;DHT22;7290;50.854;4.354;2023-09-12T08:49:03;24.20;99.90
14411;DHT22;7290;50.854;4.354;2023-09-12T08:51:30;24.50;99.90
14411;DHT22;7290;50.854;4.354;2023-09-12T08:53:58;25.50;99.90
14411;DHT22;7290;50.854;4.354;2023-09-12T08:56:25;26.50;99.90
14411;DHT22;7290;50.854;4.354;2023-09-12T08:58:52;27.00;99.90
14411;DHT22;7290;50.854;4.354;2023-09-12T09:01:19;27.40;99.90
14411;DHT22;7290;50.854;4.354;2023-09-12T09:03:47;27.90;99.90
14411;DHT22;7290;50.854;4.354;2023-09-12T09:06:13;27.80;99.90
14411;DHT22;7290;50.854;4.354;2023-09-12T09:08:41;27.40;99.90
14411;DHT22;7290;50.854;4.354;2023-09-12T09:11:09;27.20;99.90
14411;DHT22;7290;50.854;4.354;2023-09-12T09:13:36;26.90;99.90
14411;DHT22;7290;50.854;4.354;2023-09-12T09:16:12;27.10;99.90
14411;DHT22;7290;50.854;4.354;2023-09-12T09:18:52;28.00;99.90
14411;DHT22;7290;50.854;4.354;2023-09-12T09:21:20;29.20;99.90
14411;DHT22;7290;50.854;4.354;2023-09-12T09:23:50;29.40;99.90
14411;DHT22;7290;50.854;4.354;2023-09-12T09:26:17;30.00;99.90
14411;DHT22;7290;50.854;4.354;2023-09-12T09:28:44;29.80;99.90
14411;DHT22;7290;50.854;4.354;2023-09-12T09:31:11;29.70;99.90
14411;DHT22;7290;50.854;4.354;2023-09-12T09:33:37;30.10;99.90
14411;DHT22;7290;50.854;4.354;2023-09-12T09:36:06;30.10;99.90
14411;DHT22;7290;50.854;4.354;2023-09-12T09:38:34;30.80;99.90
14411;DHT22;7290;50.854;4.354;2023-09-12T09:41:04;30.90;99.90
14411;DHT22;7290;50.854;4.354;2023-09-12T09:43:31;30.50;99.90
14411;DHT22;7290;50.854;4.354;2023-09-12T09:45:58;31.30;99.90
14411;DHT22;7290;50.854;4.354;2023-09-12T09:48:26;31.00;99.90
14411;DHT22;7290;50.854;4.354;2023-09-12T09:50:53;30.30;99.90
14411;DHT22;7290;50.854;4.354;2023-09-12T09:53:26;29.80;99.90
14411;DHT22;7290;50.854;4.354;2023-09-12T09:55:55;29.90;99.90
14411;DHT22;7290;50.854;4.354;2023-09-12T09:58:33;30.80;99.90
14411;DHT22;7290;50.854;4.354;2023-09-12T10:01:00;30.90;99.90
14411;DHT22;7290;50.854;4.354;2023-09-12T10:03:29;30.60;99.90
14411;DHT22;7290;50.854;4.354;2023-09-12T10:05:59;30.80;99.90
14411;DHT22;7290;50.854;4.354;2023-09-12T10:08:29;30.30;99.90
14411;DHT22;7290;50.854;4.354;2023-09-12T10:10:55;29.40;99.90
14411;DHT22;7290;50.854;4.354;2023-09-12T10:13:21;29.10;99.90
14411;DHT22;7290;50.854;4.354;2023-09-12T10:15:53;29.90;99.90
14411;DHT22;7290;50.854;4.354;2023-09-12T10:18:22;29.90;99.90
14411;DHT22;7290;50.854;4.354;2023-09-12T10:20:53;30.00;99.90
14411;DHT22;7290;50.854;4.354;2023-09-12T10:23:26;30.70;99.90
14411;DHT22;7290;50.854;4.354;2023-09-12T10:25:54;31.50;99.90
14411;DHT22;7290;50.854;4.354;2023-09-12T10:28:21;32.00;99.90
14411;DHT22;7290;50.854;4.354;2023-09-12T10:30:48;31.20;99.90
14411;DHT22;7290;50.854;4.354;2023-09-12T10:33:16;29.80;99.90
14411;DHT22;7290;50.854;4.354;2023-09-12T10:35:44;28.80;99.90
14411;DHT22;7290;50.854;4.354;2023-09-12T10:38:12;28.10;99.90
14411;DHT22;7290;50.854;4.354;2023-09-12T10:40:41;27.10;99.90
14411;DHT22;7290;50.854;4.354;2023-09-12T10:43:09;26.70;99.90
14411;DHT22;7290;50.854;4.354;2023-09-12T10:45:36;26.60;99.90
14411;DHT22;7290;50.854;4.354;2023-09-12T10:48:03;26.60;99.90
14411;DHT22;7290;50.854;4.354;2023-09-12T10:50:30;27.80;99.90
14411;DHT22;7290;50.854;4.354;2023-09-12T10:53:09;28.60;99.90
14411;DHT22;7290;50.854;4.354;2023-09-12T10:55:35;28.80;99.90
14411;DHT22;7290;50.854;4.354;2023-09-12T10:58:03;29.20;99.90
14411;DHT22;7290;50.854;4.354;2023-09-12T11:00:29;29.90;99.90
14411;DHT22;7290;50.854;4.354;2023-09-12T11:02:58;31.20;99.90
14411;DHT22;7290;50.854;4.354;2023-09-12T11:05:37;32.50;99.90
14411;DHT22;7290;50.854;4.354;2023-09-12T11:08:03;33.50;99.90
14411;DHT22;7290;50.854;4.354;2023-09-12T11:10:30;33.30;99.80
14411;DHT22;7290;50.854;4.354;2023-09-12T11:12:58;33.20;99.70
14411;DHT22;7290;50.854;4.354;2023-09-12T11:15:26;33.30;99.60
14411;DHT22;7290;50.854;4.354;2023-09-12T11:18:01;33.20;99.90
14411;DHT22;7290;50.854;4.354;2023-09-12T11:20:50;33.00;99.90
14411;DHT22;7290;50.854;4.354;2023-09-12T11:23:18;32.90;99.90
14411;DHT22;7290;50.854;4.354;2023-09-12T11:25:45;32.50;99.90
14411;DHT22;7290;50.854;4.354;2023-09-12T11:28:12;31.90;99.90
14411;DHT22;7290;50.854;4.354;2023-09-12T11:30:55;30.40;99.90
14411;DHT22;7290;50.854;4.354;2023-09-12T11:33:23;29.20;99.90
14411;DHT22;7290;50.854;4.354;2023-09-12T11:35:52;28.50;99.90
14411;DHT22;7290;50.854;4.354;2023-09-12T11:38:27;28.50;99.90
14411;DHT22;7290;50.854;4.354;2023-09-12T11:40:54;28.50;99.90
14411;DHT22;7290;50.854;4.354;2023-09-12T11:43:22;28.50;99.90
14411;DHT22;7290;50.854;4.354;2023-09-12T11:45:49;29.00;99.90
14411;DHT22;7290;50.854;4.354;2023-09-12T11:48:17;28.70;99.90
14411;DHT22;7290;50.854;4.354;2023-09-12T11:50:51;28.90;99.90
14411;DHT22;7290;50.854;4.354;2023-09-12T11:53:20;29.90;99.90
14411;DHT22;7290;50.854;4.354;2023-09-12T11:55:48;30.60;99.90
14411;DHT22;7290;50.854;4.354;2023-09-12T11:58:17;31.40;99.90
14411;DHT22;7290;50.854;4.354;2023-09-12T12:00:44;31.60;99.90
14411;DHT22;7290;50.854;4.354;2023-09-12T12:03:12;31.30;99.90
14411;DHT22;7290;50.854;4.354;2023-09-12T12:05:39;31.10;99.90
14411;DHT22;7290;50.854;4.354;2023-09-12T12:08:08;31.30;99.90
14411;DHT22;7290;50.854;4.354;2023-09-12T12:10:34;31.90;99.90
14411;DHT22;7290;50.854;4.354;2023-09-12T12:13:01;31.70;99.90
14411;DHT22;7290;50.854;4.354;2023-09-12T12:15:28;31.60;99.90
14411;DHT22;7290;50.854;4.354;2023-09-12T12:17:54;31.90;99.90
14411;DHT22;7290;50.854;4.354;2023-09-12T12:20:21;31.60;99.90
14411;DHT22;7290;50.854;4.354;2023-09-12T12:22:47;31.80;99.90
14411;DHT22;7290;50.854;4.354;2023-09-12T12:25:15;31.90;99.90
14411;DHT22;7290;50.854;4.354;2023-09-12T12:27:42;32.00;99.90
14411;DHT22;7290;50.854;4.354;2023-09-12T12:30:10;31.70;99.90
14411;DHT22;7290;50.854;4.354;2023-09-12T12:32:39;30.80;99.90
14411;DHT22;7290;50.854;4.354;2023-09-12T12:35:17;29.80;99.90
14411;DHT22;7290;50.854;4.354;2023-09-12T12:37:43;29.10;99.90
14411;DHT22;7290;50.854;4.354;2023-09-12T12:40:12;28.20;99.90
14411;DHT22;7290;50.854;4.354;2023-09-12T12:42:40;27.80;99.90
14411;DHT22;7290;50.854;4.354;2023-09-12T12:45:11;27.40;99.90
14411;DHT22;7290;50.854;4.354;2023-09-12T12:47:38;27.10;99.90
14411;DHT22;7290;50.854;4.354;2023-09-12T12:50:07;27.00;99.90
14411;DHT22;7290;50.854;4.354;2023-09-12T12:52:34;27.40;99.90
14411;DHT22;7290;50.854;4.354;2023-09-12T12:55:04;27.10;99.90
14411;DHT22;7290;50.854;4.354;2023-09-12T12:57:30;27.40;99.90
14411;DHT22;7290;50.854;4.354;2023-09-12T12:59:58;27.30;99.90
14411;DHT22;7290;50.854;4.354;2023-09-12T13:02:25;27.30;99.90
14411;DHT22;7290;50.854;4.354;2023-09-12T13:04:51;27.20;99.90
14411;DHT22;7290;50.854;4.354;2023-09-12T13:07:20;27.40;99.90
14411;DHT22;7290;50.854;4.354;2023-09-12T13:09:46;27.30;99.90
14411;DHT22;7290;50.854;4.354;2023-09-12T13:12:13;27.10;99.90
14411;DHT22;7290;50.854;4.354;2023-09-12T13:14:43;26.60;99.90
14411;DHT22;7290;50.854;4.354;2023-09-12T13:17:10;26.60;99.90
14411;DHT22;7290;50.854;4.354;2023-09-12T13:19:36;26.90;99.90
14411;DHT22;7290;50.854;4.354;2023-09-12T13:22:03;27.00;99.90
14411;DHT22;7290;50.854;4.354;2023-09-12T13:24:29;26.70;99.90
14411;DHT22;7290;50.854;4.354;2023-09-12T13:26:55;26.60;99.90
14411;DHT22;7290;50.854;4.354;2023-09-12T13:29:21;26.50;99.90
14411;DHT22;7290;50.854;4.354;2023-09-12T13:31:47;26.30;99.90
14411;DHT22;7290;50.854;4.354;2023-09-12T13:34:14;26.30;99.90
14411;DHT22;7290;50.854;4.354;2023-09-12T13:36:40;26.20;99.90
14411;DHT22;7290;50.854;4.354;2023-09-12T13:39:07;26.20;99.90
14411;DHT22;7290;50.854;4.354;2023-09-12T13:41:33;26.40;99.90
14411;DHT22;7290;50.854;4.354;2023-09-12T13:43:59;26.70;99.90
14411;DHT22;7290;50.854;4.354;2023-09-12T13:46:25;26.50;99.90
14411;DHT22;7290;50.854;4.354;2023-09-12T13:48:52;26.20;99.90
14411;DHT22;7290;50.854;4.354;2023-09-12T13:51:18;26.20;99.90
14411;DHT22;7290;50.854;4.354;2023-09-12T13:53:46;26.20;99.90
14411;DHT22;7290;50.854;4.354;2023-09-12T13:56:12;26.40;99.90
14411;DHT22;7290;50.854;4.354;2023-09-12T13:58:38;26.40;99.90
14411;DHT22;7290;50.854;4.354;2023-09-12T14:01:04;26.30;99.90
14411;DHT22;7290;50.854;4.354;2023-09-12T14:03:31;26.20;99.90
14411;DHT22;7290;50.854;4.354;2023-09-12T14:05:57;26.00;99.90
14411;DHT22;7290;50.854;4.354;2023-09-12T14:08:24;26.20;99.90
14411;DHT22;7290;50.854;4.354;2023-09-12T14:10:50;26.30;99.90
14411;DHT22;7290;50.854;4.354;2023-09-12T14:13:17;26.30;99.90
14411;DHT22;7290;50.854;4.354;2023-09-12T14:15:43;26.20;99.90
14411;DHT22;7290;50.854;4.354;2023-09-12T14:18:12;25.90;99.90
14411;DHT22;7290;50.854;4.354;2023-09-12T14:20:38;25.90;99.90
14411;DHT22;7290;50.854;4.354;2023-09-12T14:23:04;26.00;99.90
14411;DHT22;7290;50.854;4.354;2023-09-12T14:25:32;25.90;99.90
14411;DHT22;7290;50.854;4.354;2023-09-12T14:27:58;25.90;99.90
14411;DHT22;7290;50.854;4.354;2023-09-12T14:30:24;25.80;99.90
14411;DHT22;7290;50.854;4.354;2023-09-12T14:32:59;25.90;99.90
14411;DHT22;7290;50.854;4.354;2023-09-12T14:35:27;26.00;99.90
14411;DHT22;7290;50.854;4.354;2023-09-12T14:37:53;25.90;99.90
14411;DHT22;7290;50.854;4.354;2023-09-12T14:40:19;25.70;99.90
14411;DHT22;7290;50.854;4.354;2023-09-12T14:42:46;25.50;99.90
14411;DHT22;7290;50.854;4.354;2023-09-12T14:45:14;25.30;99.90
14411;DHT22;7290;50.854;4.354;2023-09-12T14:47:41;25.20;99.90
14411;DHT22;7290;50.854;4.354;2023-09-12T14:50:07;25.30;99.90
14411;DHT22;7290;50.854;4.354;2023-09-12T14:52:34;25.60;99.90
14411;DHT22;7290;50.854;4.354;2023-09-12T14:55:00;25.70;99.90
14411;DHT22;7290;50.854;4.354;2023-09-12T14:57:28;25.70;99.90
14411;DHT22;7290;50.854;4.354;2023-09-12T14:59:56;25.60;99.90
14411;DHT22;7290;50.854;4.354;2023-09-12T15:02:23;25.50;99.90
14411;DHT22;7290;50.854;4.354;2023-09-12T15:04:50;25.70;99.90
14411;DHT22;7290;50.854;4.354;2023-09-12T15:07:16;25.40;99.90
14411;DHT22;7290;50.854;4.354;2023-09-12T15:09:43;25.30;99.90
14411;DHT22;7290;50.854;4.354;2023-09-12T15:12:10;25.10;99.90
14411;DHT22;7290;50.854;4.354;2023-09-12T15:14:38;25.30;99.90
14411;DHT22;7290;50.854;4.354;2023-09-12T15:17:05;25.30;99.90
14411;DHT22;7290;50.854;4.354;2023-09-12T15:19:31;25.50;99.90
14411;DHT22;7290;50.854;4.354;2023-09-12T15:21:58;25.50;99.90
14411;DHT22;7290;50.854;4.354;2023-09-12T15:24:24;25.30;99.90
14411;DHT22;7290;50.854;4.354;2023-09-12T15:26:54;25.20;99.90
14411;DHT22;7290;50.854;4.354;2023-09-12T15:29:20;25.20;99.90
14411;DHT22;7290;50.854;4.354;2023-09-12T15:31:47;25.20;99.90
14411;DHT22;7290;50.854;4.354;2023-09-12T15:34:14;25.30;99.90
14411;DHT22;7290;50.854;4.354;2023-09-12T15:36:43;25.50;99.90
14411;DHT22;7290;50.854;4.354;2023-09-12T15:39:09;25.50;99.90
14411;DHT22;7290;50.854;4.354;2023-09-12T15:41:35;25.40;99.90
14411;DHT22;7290;50.854;4.354;2023-09-12T15:44:02;25.30;99.90
14411;DHT22;7290;50.854;4.354;2023-09-12T15:46:28;25.20;99.90
14411;DHT22;7290;50.854;4.354;2023-09-12T15:48:54;25.00;99.90
14411;DHT22;7290;50.854;4.354;2023-09-12T15:51:21;25.00;99.90